createdAt,value
2023-05-15T00:01:25.751Z,99643.09
2023-05-15T00:03:52.465Z,99642.94
2023-05-15T00:06:19.986Z,99646.63
2023-05-15T00:08:46.617Z,99639.22
2023-05-15T00:11:13.203Z,99635.81
2023-05-15T00:13:39.799Z,99651.84
2023-05-15T00:16:08.195Z,99647.78
2023-05-15T00:18:35.107Z,99650.31
2023-05-15T00:21:01.799Z,99657.41
2023-05-15T00:23:28.452Z,99656.56
2023-05-15T00:25:55.017Z,99666.50
2023-05-15T00:28:21.623Z,99670.22
2023-05-15T00:30:48.218Z,99670.91
2023-05-15T00:33:14.787Z,99668.91
2023-05-15T00:35:41.384Z,99668.19
2023-05-15T00:38:08.040Z,99664.50
2023-05-15T00:40:36.455Z,99660.97
2023-05-15T00:43:05.102Z,99654.72
2023-05-15T00:45:32.499Z,99651.19
2023-05-15T00:48:00.837Z,99651.84
2023-05-15T00:50:28.065Z,99648.47
2023-05-15T00:52:55.911Z,99644.78
2023-05-15T00:55:23.005Z,99650.16
2023-05-15T00:57:51.312Z,99646.47
2023-05-15T01:00:18.668Z,99642.75
2023-05-15T01:02:46.397Z,99637.53
2023-05-15T01:05:13.401Z,99629.44
2023-05-15T01:07:52.096Z,99618.66
2023-05-15T01:10:19.702Z,99619.63
2023-05-15T01:12:50.748Z,99610.72
2023-05-15T01:15:17.508Z,99612.41
2023-05-15T01:17:44.599Z,99613.25
2023-05-15T01:20:12.293Z,99616.94
2023-05-15T01:22:46.192Z,99616.09
2023-05-15T01:25:46.364Z,99599.94
2023-05-15T01:28:18.508Z,99609.69
2023-05-15T01:30:45.898Z,99607.84
2023-05-15T01:33:21.174Z,99606.84
2023-05-15T01:35:55.856Z,99611.38
2023-05-15T01:38:31.344Z,99614.25
2023-05-15T01:41:05.055Z,99607.00
2023-05-15T01:43:35.263Z,99599.06
2023-05-15T01:46:03.054Z,99581.19
2023-05-15T01:48:33.381Z,99573.25
2023-05-15T01:51:03.783Z,99568.72
2023-05-15T01:53:36.134Z,99567.88
2023-05-15T01:56:04.192Z,99570.69
2023-05-15T01:58:34.602Z,99576.28
2023-05-15T02:01:01.858Z,99587.75
2023-05-15T02:03:29.807Z,99592.16
2023-05-15T02:05:56.807Z,99592.00
2023-05-15T02:08:25.747Z,99595.84
2023-05-15T02:10:53.155Z,99602.09
2023-05-15T02:13:20.113Z,99602.94
2023-05-15T02:15:46.842Z,99603.78
2023-05-15T02:18:13.457Z,99609.31
2023-05-15T02:20:40.064Z,99618.59
2023-05-15T02:23:06.665Z,99629.88
2023-05-15T02:25:50.058Z,99637.13
2023-05-15T02:28:30.832Z,99632.91
2023-05-15T02:31:08.187Z,99639.31
2023-05-15T02:33:50.615Z,99637.63
2023-05-15T02:36:22.764Z,99640.97
2023-05-15T02:38:52.798Z,99633.75
2023-05-15T02:41:19.753Z,99631.72
2023-05-15T02:43:50.625Z,99628.00
2023-05-15T02:46:19.779Z,99629.22
2023-05-15T02:48:47.795Z,99621.81
2023-05-15T02:51:14.417Z,99620.81
2023-05-15T02:53:42.062Z,99623.19
2023-05-15T02:56:09.444Z,99623.66
2023-05-15T02:58:36.923Z,99622.81
2023-05-15T03:01:04.526Z,99616.44
2023-05-15T03:03:31.270Z,99600.94
2023-05-15T03:05:57.818Z,99608.84
2023-05-15T03:08:24.434Z,99605.31
2023-05-15T03:10:51.009Z,99612.88
2023-05-15T03:13:17.824Z,99603.94
2023-05-15T03:15:45.492Z,99594.69
2023-05-15T03:18:12.219Z,99584.91
2023-05-15T03:20:38.863Z,99583.03
2023-05-15T03:23:05.495Z,99575.66
2023-05-15T03:25:32.048Z,99572.59
2023-05-15T03:27:59.941Z,99561.66
2023-05-15T03:30:26.540Z,99553.22
2023-05-15T03:32:53.254Z,99538.03
2023-05-15T03:35:19.872Z,99543.94
2023-05-15T03:37:46.508Z,99549.34
2023-05-15T03:40:13.782Z,99544.78
2023-05-15T03:42:40.350Z,99538.38
2023-05-15T03:45:07.725Z,99540.91
2023-05-15T03:47:34.423Z,99546.97
2023-05-15T03:50:01.003Z,99544.13
2023-05-15T03:52:27.659Z,99550.53
2023-05-15T03:54:54.259Z,99559.28
2023-05-15T03:57:20.842Z,99546.47
2023-05-15T03:59:47.413Z,99543.59
2023-05-15T04:02:14.002Z,99540.59
2023-05-15T04:04:40.794Z,99536.69
2023-05-15T04:07:07.844Z,99537.38
2023-05-15T04:09:34.388Z,99528.25
2023-05-15T04:12:00.936Z,99515.63
2023-05-15T04:14:28.498Z,99521.69
2023-05-15T04:16:55.087Z,99518.44
2023-05-15T04:19:21.791Z,99516.44
2023-05-15T04:21:48.416Z,99521.66
2023-05-15T04:24:14.962Z,99527.06
2023-05-15T04:26:41.994Z,99523.16
2023-05-15T04:29:09.409Z,99516.09
2023-05-15T04:31:36.304Z,99514.91
2023-05-15T04:34:04.400Z,99530.25
2023-05-15T04:36:31.772Z,99549.66
2023-05-15T04:38:58.392Z,99549.00
2023-05-15T04:41:25.097Z,99545.44
2023-05-15T04:43:51.678Z,99548.34
2023-05-15T04:46:18.328Z,99551.19
2023-05-15T04:48:44.922Z,99555.25
2023-05-15T04:51:11.964Z,99560.78
2023-05-15T04:53:38.560Z,99561.81
2023-05-15T04:56:05.421Z,99595.06
2023-05-15T04:58:32.069Z,99588.47
2023-05-15T05:00:59.137Z,99600.97
2023-05-15T05:03:26.404Z,99595.88
2023-05-15T05:05:52.991Z,99598.25
2023-05-15T05:08:19.568Z,99590.97
2023-05-15T05:10:46.100Z,99599.25
2023-05-15T05:13:12.713Z,99591.66
2023-05-15T05:15:39.309Z,99595.72
2023-05-15T05:18:06.298Z,99601.78
2023-05-15T05:20:32.877Z,99613.09
2023-05-15T05:22:59.458Z,99611.09
2023-05-15T05:25:26.301Z,99610.06
2023-05-15T05:27:53.102Z,99602.97
2023-05-15T05:30:19.772Z,99599.09
2023-05-15T05:32:46.373Z,99593.16
2023-05-15T05:35:12.955Z,99582.22
2023-05-15T05:37:41.170Z,99587.78
2023-05-15T05:40:09.026Z,99580.38
2023-05-15T05:42:35.636Z,99580.50
2023-05-15T05:45:02.314Z,99592.66
2023-05-15T05:47:28.987Z,99590.28
2023-05-15T05:49:55.749Z,99591.78
2023-05-15T05:52:22.389Z,99600.56
2023-05-15T05:54:50.352Z,99608.31
2023-05-15T05:57:17.007Z,99616.94
2023-05-15T05:59:43.872Z,99617.75
2023-05-15T06:02:11.347Z,99604.25
2023-05-15T06:04:41.358Z,99603.06
2023-05-15T06:07:08.698Z,99600.81
2023-05-15T06:09:35.262Z,99613.28
2023-05-15T06:12:04.673Z,99617.63
2023-05-15T06:14:31.527Z,99615.78
2023-05-15T06:16:58.131Z,99621.00
2023-05-15T06:19:24.856Z,99630.94
2023-05-15T06:21:51.454Z,99627.69
2023-05-15T06:24:18.108Z,99626.91
2023-05-15T06:26:45.010Z,99640.34
2023-05-15T06:29:11.592Z,99642.19
2023-05-15T06:31:38.116Z,99640.84
2023-05-15T06:34:04.666Z,99635.91
2023-05-15T06:36:31.294Z,99639.44
2023-05-15T06:38:57.908Z,99630.66
2023-05-15T06:41:24.477Z,99618.88
2023-05-15T06:43:51.037Z,99601.69
2023-05-15T06:46:19.191Z,99604.44
2023-05-15T06:48:46.004Z,99590.13
2023-05-15T06:51:12.629Z,99591.56
2023-05-15T06:53:39.245Z,99584.19
2023-05-15T06:56:06.285Z,99591.28
2023-05-15T06:58:32.873Z,99590.25
2023-05-15T07:00:59.529Z,99585.00
2023-05-15T07:03:27.768Z,99598.84
2023-05-15T07:05:54.325Z,99605.22
2023-05-15T07:08:20.905Z,99603.44
2023-05-15T07:10:48.707Z,99605.09
2023-05-15T07:13:20.052Z,99603.72
2023-05-15T07:15:47.144Z,99612.13
2023-05-15T07:18:13.777Z,99616.13
2023-05-15T07:20:40.509Z,99628.41
2023-05-15T07:23:07.092Z,99626.03
2023-05-15T07:25:33.769Z,99633.72
2023-05-15T07:28:00.506Z,99649.59
2023-05-15T07:30:27.346Z,99650.94
2023-05-15T07:32:54.307Z,99648.03
2023-05-15T07:35:20.962Z,99631.19
2023-05-15T07:37:47.575Z,99628.66
2023-05-15T07:40:15.546Z,99619.50
2023-05-15T07:42:44.277Z,99614.75
2023-05-15T07:45:11.285Z,99616.72
2023-05-15T07:47:37.951Z,99617.63
2023-05-15T07:50:04.840Z,99611.75
2023-05-15T07:52:31.375Z,99604.25
2023-05-15T07:54:58.256Z,99607.53
2023-05-15T07:57:25.666Z,99617.94
2023-05-15T07:59:52.274Z,99623.47
2023-05-15T08:02:18.906Z,99626.25
2023-05-15T08:04:45.662Z,99643.06
2023-05-15T08:07:13.953Z,99647.84
2023-05-15T08:09:40.782Z,99639.16
2023-05-15T08:12:23.517Z,99641.75
2023-05-15T08:14:51.569Z,99642.78
2023-05-15T08:17:19.040Z,99639.50
2023-05-15T08:19:45.680Z,99635.97
2023-05-15T08:22:12.270Z,99635.38
2023-05-15T08:24:40.321Z,99652.59
2023-05-15T08:27:08.540Z,99652.03
2023-05-15T08:29:37.355Z,99651.81
2023-05-15T08:32:07.034Z,99653.16
2023-05-15T08:34:33.645Z,99646.06
2023-05-15T08:37:00.253Z,99640.03
2023-05-15T08:39:29.621Z,99640.44
2023-05-15T08:42:09.375Z,99642.50
2023-05-15T08:44:36.779Z,99637.44
2023-05-15T08:47:05.352Z,99641.22
2023-05-15T08:49:48.150Z,99631.97
2023-05-15T08:52:15.720Z,99633.13
2023-05-15T08:54:42.742Z,99627.69
2023-05-15T08:57:10.363Z,99621.53
2023-05-15T08:59:37.833Z,99626.28
2023-05-15T09:02:04.584Z,99621.50
2023-05-15T09:04:31.270Z,99624.16
2023-05-15T09:07:00.872Z,99631.13
2023-05-15T09:09:29.446Z,99654.06
2023-05-15T09:11:56.312Z,99657.59
2023-05-15T09:14:22.861Z,99657.81
2023-05-15T09:16:53.070Z,99650.91
2023-05-15T09:19:21.330Z,99650.91
2023-05-15T09:21:48.613Z,99658.06
2023-05-15T09:24:23.684Z,99668.97
2023-05-15T09:27:07.382Z,99667.03
2023-05-15T09:29:36.141Z,99675.25
2023-05-15T09:32:07.535Z,99678.56
2023-05-15T09:34:39.331Z,99677.13
2023-05-15T09:37:07.810Z,99692.66
2023-05-15T09:39:42.243Z,99688.81
2023-05-15T09:42:10.654Z,99699.00
2023-05-15T09:44:41.373Z,99683.72
2023-05-15T09:47:08.218Z,99685.44
2023-05-15T09:49:34.999Z,99690.34
2023-05-15T09:52:02.500Z,99682.09
2023-05-15T09:54:31.619Z,99685.50
2023-05-15T09:57:11.550Z,99684.06
2023-05-15T09:59:45.791Z,99680.66
2023-05-15T10:02:28.044Z,99683.81
2023-05-15T10:04:56.944Z,99688.81
2023-05-15T10:07:34.938Z,99678.81
2023-05-15T10:10:03.521Z,99679.66
2023-05-15T10:12:32.392Z,99682.88
2023-05-15T10:15:00.833Z,99690.59
2023-05-15T10:17:28.687Z,99689.94
2023-05-15T10:19:59.177Z,99691.28
2023-05-15T10:22:30.129Z,99682.09
2023-05-15T10:25:35.384Z,99687.31
2023-05-15T10:28:02.551Z,99682.06
2023-05-15T10:30:29.331Z,99683.16
2023-05-15T10:32:57.431Z,99678.25
2023-05-15T10:35:24.956Z,99683.34
2023-05-15T10:37:51.644Z,99679.63
2023-05-15T10:40:18.340Z,99699.53
2023-05-15T10:42:47.550Z,99694.53
2023-05-15T10:45:14.416Z,99692.22
2023-05-15T10:47:43.011Z,99695.56
2023-05-15T10:50:11.633Z,99701.00
2023-05-15T10:52:39.237Z,99692.59
2023-05-15T10:55:13.679Z,99681.69
2023-05-15T10:57:40.676Z,99686.13
2023-05-15T11:00:22.228Z,99694.13
2023-05-15T11:02:50.934Z,99686.97
2023-05-15T11:05:17.566Z,99691.56
2023-05-15T11:07:44.162Z,99690.53
2023-05-15T11:10:28.727Z,99692.63
2023-05-15T11:12:55.895Z,99684.22
2023-05-15T11:15:22.456Z,99686.38
2023-05-15T11:18:07.659Z,99674.75
2023-05-15T11:20:42.116Z,99675.50
2023-05-15T11:23:09.315Z,99662.75
2023-05-15T11:25:37.258Z,99668.69
2023-05-15T11:28:04.991Z,99664.41
2023-05-15T11:30:39.643Z,99664.72
2023-05-15T11:33:10.053Z,99668.28
2023-05-15T11:35:47.073Z,99674.97
2023-05-15T11:38:27.469Z,99663.06
2023-05-15T11:41:02.614Z,99670.66
2023-05-15T11:43:36.446Z,99673.59
2023-05-15T11:46:03.018Z,99676.84
2023-05-15T11:48:39.501Z,99675.66
2023-05-15T11:51:22.080Z,99675.69
2023-05-15T11:53:53.838Z,99672.34
2023-05-15T11:56:23.099Z,99664.31
2023-05-15T11:58:57.664Z,99665.38
2023-05-15T12:01:24.331Z,99676.50
2023-05-15T12:03:53.302Z,99674.19
2023-05-15T12:06:20.598Z,99665.78
2023-05-15T12:08:53.916Z,99660.97
2023-05-15T12:11:24.667Z,99661.16
2023-05-15T12:13:53.924Z,99662.19
2023-05-15T12:16:26.416Z,99668.84
2023-05-15T12:18:53.491Z,99665.28
2023-05-15T12:21:20.050Z,99672.84
2023-05-15T12:26:27.411Z,99668.66
2023-05-15T12:28:55.303Z,99672.25
2023-05-15T12:31:22.100Z,99677.28
2023-05-15T12:33:49.206Z,99685.03
2023-05-15T12:36:19.757Z,99691.59
2023-05-15T12:38:46.426Z,99686.34
2023-05-15T12:41:14.199Z,99691.00
2023-05-15T12:43:41.384Z,99686.97
2023-05-15T12:46:08.160Z,99689.47
2023-05-15T12:48:36.328Z,99689.94
2023-05-15T12:51:07.975Z,99687.81
2023-05-15T12:53:34.972Z,99669.38
2023-05-15T12:56:02.198Z,99660.34
2023-05-15T12:58:29.036Z,99658.19
2023-05-15T13:00:56.965Z,99664.91
2023-05-15T13:03:25.120Z,99663.66
2023-05-15T13:05:52.268Z,99647.00
2023-05-15T13:08:19.215Z,99640.03
2023-05-15T13:10:47.416Z,99649.66
2023-05-15T13:13:14.334Z,99659.69
2023-05-15T13:15:44.166Z,99658.28
2023-05-15T13:18:13.163Z,99643.81
2023-05-15T13:20:41.114Z,99642.31
2023-05-15T13:23:08.777Z,99646.50
2023-05-15T13:25:36.083Z,99635.66
2023-05-15T13:28:05.172Z,99637.69
2023-05-15T13:30:35.666Z,99636.09
2023-05-15T13:33:03.927Z,99639.66
2023-05-15T13:35:31.009Z,99633.97
2023-05-15T13:37:57.663Z,99643.03
2023-05-15T13:40:24.572Z,99636.53
2023-05-15T13:42:51.312Z,99643.06
2023-05-15T13:45:17.956Z,99633.88
2023-05-15T13:47:44.953Z,99632.56
2023-05-15T13:50:14.553Z,99634.28
2023-05-15T13:52:42.376Z,99627.75
2023-05-15T13:55:09.932Z,99627.75
2023-05-15T13:57:41.258Z,99630.47
2023-05-15T14:00:13.161Z,99636.03
2023-05-15T14:02:41.685Z,99644.47
2023-05-15T14:05:12.528Z,99641.81
2023-05-15T14:07:39.396Z,99649.19
2023-05-15T14:10:06.776Z,99643.69
2023-05-15T14:12:34.055Z,99646.91
2023-05-15T14:15:01.133Z,99650.50
2023-05-15T14:17:28.919Z,99659.09
2023-05-15T14:19:55.601Z,99658.66
2023-05-15T14:22:25.052Z,99648.59
2023-05-15T14:24:54.613Z,99652.16
2023-05-15T14:27:21.262Z,99655.50
2023-05-15T14:29:49.150Z,99654.25
2023-05-15T14:32:16.864Z,99653.84
2023-05-15T14:34:43.816Z,99662.41
2023-05-15T14:37:10.454Z,99659.47
2023-05-15T14:39:37.129Z,99652.34
2023-05-15T14:42:03.973Z,99660.94
2023-05-15T14:44:30.633Z,99656.09
2023-05-15T14:47:07.697Z,99655.44
2023-05-15T14:49:35.188Z,99665.25
2023-05-15T14:52:02.265Z,99664.22
2023-05-15T14:54:29.453Z,99666.56
2023-05-15T14:56:57.532Z,99667.38
2023-05-15T14:59:25.612Z,99662.97
2023-05-15T15:01:52.212Z,99676.16
2023-05-15T15:04:18.914Z,99677.63
2023-05-15T15:06:47.778Z,99671.25
2023-05-15T15:09:14.357Z,99676.16
2023-05-15T15:11:41.065Z,99679.31
2023-05-15T15:14:07.623Z,99677.22
2023-05-15T15:16:34.381Z,99678.72
2023-05-15T15:19:01.059Z,99693.81
2023-05-15T15:21:27.788Z,99691.72
2023-05-15T15:23:55.203Z,99694.63
2023-05-15T15:26:21.817Z,99704.09
2023-05-15T15:28:48.502Z,99697.34
2023-05-15T15:31:15.765Z,99700.50
2023-05-15T15:33:42.438Z,99695.72
2023-05-15T15:36:09.167Z,99699.31
2023-05-15T15:38:36.047Z,99694.88
2023-05-15T15:41:03.593Z,99693.84
2023-05-15T15:43:30.266Z,99700.59
2023-05-15T15:45:56.897Z,99702.69
2023-05-15T15:48:23.822Z,99702.69
2023-05-15T15:50:52.092Z,99708.97
2023-05-15T15:53:18.677Z,99719.44
2023-05-15T15:55:47.007Z,99715.22
2023-05-15T15:58:14.648Z,99710.81
2023-05-15T16:00:41.405Z,99703.47
2023-05-15T16:03:08.303Z,99712.25
2023-05-15T16:05:34.990Z,99713.31
2023-05-15T16:08:01.618Z,99700.91
2023-05-15T16:10:28.496Z,99699.41
2023-05-15T16:12:55.431Z,99708.25
2023-05-15T16:15:24.066Z,99696.69
2023-05-15T16:17:53.564Z,99704.88
2023-05-15T16:20:21.114Z,99702.97
2023-05-15T16:22:47.688Z,99701.28
2023-05-15T16:25:14.204Z,99706.53
2023-05-15T16:27:40.791Z,99708.41
2023-05-15T16:30:09.165Z,99712.78
2023-05-15T16:32:36.197Z,99724.28
2023-05-15T16:35:03.183Z,99724.75
2023-05-15T16:37:29.778Z,99726.03
2023-05-15T16:39:56.353Z,99729.81
2023-05-15T16:42:23.290Z,99738.81
2023-05-15T16:44:49.904Z,99739.16
2023-05-15T16:47:16.569Z,99741.00
2023-05-15T16:49:44.366Z,99728.84
2023-05-15T16:52:12.043Z,99730.50
2023-05-15T16:54:41.543Z,99731.97
2023-05-15T16:57:08.179Z,99735.13
2023-05-15T16:59:34.781Z,99728.19
2023-05-15T17:02:01.439Z,99724.63
2023-05-15T17:04:29.092Z,99728.97
2023-05-15T17:06:57.029Z,99734.34
2023-05-15T17:09:23.615Z,99733.13
2023-05-15T17:11:50.172Z,99740.03
2023-05-15T17:14:16.887Z,99740.16
2023-05-15T17:16:43.613Z,99755.56
2023-05-15T17:19:10.355Z,99759.94
2023-05-15T17:21:37.530Z,99754.44
2023-05-15T17:24:04.286Z,99758.78
2023-05-15T17:26:30.860Z,99768.31
2023-05-15T17:28:57.445Z,99766.44
2023-05-15T17:31:24.050Z,99768.19
2023-05-15T17:33:50.831Z,99773.56
2023-05-15T17:36:17.438Z,99769.91
2023-05-15T17:38:44.023Z,99779.97
2023-05-15T17:41:10.630Z,99781.63
2023-05-15T17:43:37.191Z,99781.19
2023-05-15T17:46:05.658Z,99779.50
2023-05-15T17:48:33.014Z,99779.69
2023-05-15T17:50:59.629Z,99782.88
2023-05-15T17:53:26.406Z,99784.28
2023-05-15T17:55:53.054Z,99782.78
2023-05-15T17:58:21.233Z,99778.13
2023-05-15T18:00:47.861Z,99776.84
2023-05-15T18:03:14.701Z,99769.66
2023-05-15T18:05:41.357Z,99771.84
2023-05-15T18:08:08.171Z,99771.28
2023-05-15T18:10:34.742Z,99771.13
2023-05-15T18:13:01.311Z,99764.41
2023-05-15T18:15:28.232Z,99770.88
2023-05-15T18:20:21.740Z,99770.88
2023-05-15T18:22:49.538Z,99774.19
2023-05-15T18:25:16.243Z,99779.69
2023-05-15T18:27:43.084Z,99789.22
2023-05-15T18:30:10.136Z,99791.94
2023-05-15T18:32:36.812Z,99797.00
2023-05-15T18:35:03.880Z,99799.13
2023-05-15T18:37:30.646Z,99808.38
2023-05-15T18:39:58.741Z,99818.50
2023-05-15T18:42:26.018Z,99819.75
2023-05-15T18:44:52.705Z,99822.19
2023-05-15T18:47:19.404Z,99825.66
2023-05-15T18:49:46.188Z,99827.94
2023-05-15T18:52:12.873Z,99837.53
2023-05-15T18:54:41.289Z,99839.88
2023-05-15T18:57:08.344Z,99833.19
2023-05-15T18:59:35.082Z,99829.81
2023-05-15T19:02:01.830Z,99835.53
2023-05-15T19:04:28.459Z,99837.25
2023-05-15T19:06:55.042Z,99837.47
2023-05-15T19:09:21.742Z,99839.03
2023-05-15T19:11:51.734Z,99846.34
2023-05-15T19:14:19.031Z,99841.63
2023-05-15T19:16:46.267Z,99837.22
2023-05-15T19:19:13.476Z,99847.56
2023-05-15T19:21:40.318Z,99847.63
2023-05-15T19:24:07.163Z,99848.66
2023-05-15T19:26:34.079Z,99851.03
2023-05-15T19:29:00.826Z,99854.44
2023-05-15T19:31:31.848Z,99866.63
2023-05-15T19:33:59.808Z,99853.63
2023-05-15T19:36:26.813Z,99852.06
2023-05-15T19:38:53.546Z,99852.94
2023-05-15T19:41:20.118Z,99853.63
2023-05-15T19:43:47.068Z,99859.56
2023-05-15T19:46:14.001Z,99846.38
2023-05-15T19:48:40.811Z,99846.56
2023-05-15T19:51:07.393Z,99845.22
2023-05-15T19:53:34.490Z,99851.28
2023-05-15T19:56:01.061Z,99843.66
2023-05-15T19:58:27.925Z,99848.25
2023-05-15T20:00:54.727Z,99839.16
2023-05-15T20:03:22.270Z,99840.19
2023-05-15T20:05:48.944Z,99835.97
2023-05-15T20:08:17.101Z,99846.94
2023-05-15T20:10:44.570Z,99851.34
2023-05-15T20:13:11.713Z,99851.00
2023-05-15T20:15:39.949Z,99856.59
2023-05-15T20:18:07.436Z,99859.63
2023-05-15T20:20:34.791Z,99856.28
2023-05-15T20:23:01.359Z,99867.91
2023-05-15T20:25:29.181Z,99876.88
2023-05-15T20:27:57.171Z,99877.06
2023-05-15T20:30:24.234Z,99868.28
2023-05-15T20:32:51.120Z,99874.38
2023-05-15T20:35:17.917Z,99878.19
2023-05-15T20:37:45.420Z,99884.47
2023-05-15T20:40:12.981Z,99883.75
2023-05-15T20:42:39.949Z,99886.66
2023-05-15T20:45:08.720Z,99883.75
2023-05-15T20:47:35.980Z,99882.09
2023-05-15T20:50:02.673Z,99888.34
2023-05-15T20:52:29.387Z,99884.47
2023-05-15T20:54:56.001Z,99880.06
2023-05-15T20:57:22.760Z,99872.28
2023-05-15T20:59:49.368Z,99878.03
2023-05-15T21:02:16.070Z,99872.78
2023-05-15T21:04:42.939Z,99872.97
2023-05-15T21:07:09.954Z,99881.22
2023-05-15T21:09:36.678Z,99879.53
2023-05-15T21:12:04.074Z,99875.47
2023-05-15T21:14:30.912Z,99880.53
2023-05-15T21:16:57.778Z,99880.69
2023-05-15T21:19:24.627Z,99872.06
2023-05-15T21:21:51.325Z,99882.22
2023-05-15T21:24:18.100Z,99879.84
2023-05-15T21:26:44.820Z,99886.09
2023-05-15T21:29:11.570Z,99887.63
2023-05-15T21:31:38.549Z,99889.25
2023-05-15T21:34:05.290Z,99885.03
2023-05-15T21:36:31.909Z,99882.34
2023-05-15T21:38:58.440Z,99877.59
2023-05-15T21:41:26.136Z,99879.63
2023-05-15T21:43:52.760Z,99885.38
2023-05-15T21:46:19.485Z,99888.59
2023-05-15T21:48:46.624Z,99884.72
2023-05-15T21:51:13.360Z,99889.97
2023-05-15T21:53:40.053Z,99899.06
2023-05-15T21:56:07.356Z,99901.09
2023-05-15T21:58:33.926Z,99904.78
2023-05-15T22:01:00.652Z,99908.66
2023-05-15T22:03:27.520Z,99910.50
2023-05-15T22:05:54.256Z,99915.59
2023-05-15T22:08:21.619Z,99917.13
2023-05-15T22:10:49.193Z,99922.38
2023-05-15T22:13:15.785Z,99928.75
2023-05-15T22:15:42.977Z,99935.03
2023-05-15T22:18:09.902Z,99939.41
2023-05-15T22:20:36.744Z,99942.97
2023-05-15T22:23:03.359Z,99946.34
2023-05-15T22:25:30.069Z,99943.50
2023-05-15T22:27:56.879Z,99947.06
2023-05-15T22:30:23.721Z,99949.75
2023-05-15T22:32:50.296Z,99946.34
2023-05-15T22:35:18.027Z,99941.28
2023-05-15T22:37:45.550Z,99940.44
2023-05-15T22:40:12.745Z,99936.34
2023-05-15T22:42:39.323Z,99934.00
2023-05-15T22:45:07.163Z,99931.13
2023-05-15T22:47:33.967Z,99925.91
2023-05-15T22:50:00.758Z,99922.19
2023-05-15T22:52:27.388Z,99923.03
2023-05-15T22:54:53.992Z,99924.22
2023-05-15T22:57:20.586Z,99922.50
2023-05-15T22:59:47.297Z,99914.72
2023-05-15T23:02:13.861Z,99901.38
2023-05-15T23:04:40.504Z,99906.78
2023-05-15T23:07:07.184Z,99907.13
2023-05-15T23:09:33.807Z,99907.28
2023-05-15T23:12:00.797Z,99905.09
2023-05-15T23:14:27.408Z,99907.06
2023-05-15T23:16:54.069Z,99901.00
2023-05-15T23:19:20.780Z,99903.53
2023-05-15T23:21:47.441Z,99905.38
2023-05-15T23:24:14.019Z,99901.66
2023-05-15T23:26:40.694Z,99906.34
2023-05-15T23:29:07.278Z,99894.88
2023-05-15T23:31:34.355Z,99893.03
2023-05-15T23:34:01.009Z,99898.25
2023-05-15T23:36:27.566Z,99891.88
2023-05-15T23:38:54.408Z,99889.16
2023-05-15T23:41:22.888Z,99887.78
2023-05-15T23:43:52.581Z,99887.78
2023-05-15T23:46:19.321Z,99887.13
2023-05-15T23:48:46.038Z,99880.72
2023-05-15T23:51:12.850Z,99886.25
2023-05-15T23:53:39.398Z,99881.88
2023-05-15T23:56:06.595Z,99877.16
2023-05-15T23:58:33.630Z,99878.84
